createdAt,value
2019-03-09T00:01:50.772Z,100997.70
2019-03-09T00:04:23.035Z,100996.20
2019-03-09T00:06:54.995Z,100990.45
2019-03-09T00:09:26.943Z,100986.52
2019-03-09T00:11:59.232Z,100980.39
2019-03-09T00:14:31.185Z,100978.61
2019-03-09T00:17:03.159Z,100966.77
2019-03-09T00:19:35.127Z,100965.14
2019-03-09T00:22:07.080Z,100958.90
2019-03-09T00:24:40.671Z,100959.61
2019-03-09T00:27:16.984Z,100956.78
2019-03-09T00:29:50.567Z,100952.70
2019-03-09T00:32:23.815Z,100949.61
2019-03-09T00:34:56.031Z,100944.86
2019-03-09T00:37:27.991Z,100937.42
2019-03-09T00:39:59.952Z,100936.98
2019-03-09T00:42:31.923Z,100936.23
2019-03-09T00:45:04.138Z,100929.62
2019-03-09T00:47:36.099Z,100927.78
2019-03-09T00:50:11.150Z,100920.17
2019-03-09T00:52:43.452Z,100918.38
2019-03-09T00:55:15.739Z,100909.16
2019-03-09T00:57:47.995Z,100897.48
2019-03-09T01:00:20.652Z,100900.47
2019-03-09T01:02:52.648Z,100896.17
2019-03-09T01:05:24.918Z,100894.50
2019-03-09T01:07:57.183Z,100888.27
2019-03-09T01:10:29.201Z,100884.90
2019-03-09T01:13:01.158Z,100881.05
2019-03-09T01:15:33.243Z,100872.53
2019-03-09T01:18:05.862Z,100867.48
2019-03-09T01:20:38.130Z,100860.75
2019-03-09T01:23:10.099Z,100848.16
2019-03-09T01:25:42.060Z,100838.34
2019-03-09T01:28:14.323Z,100827.50
2019-03-09T01:30:46.413Z,100824.89
2019-03-09T01:33:18.812Z,100819.09
2019-03-09T01:35:50.823Z,100813.73
2019-03-09T01:38:23.322Z,100801.84
2019-03-09T01:40:55.264Z,100798.38
2019-03-09T01:43:27.251Z,100791.78
2019-03-09T01:45:59.555Z,100784.41
2019-03-09T01:48:31.593Z,100782.06
2019-03-09T01:51:03.722Z,100770.22
2019-03-09T01:53:36.983Z,100770.52
2019-03-09T01:56:09.101Z,100766.55
2019-03-09T01:58:41.678Z,100762.48
2019-03-09T02:01:13.620Z,100760.80
2019-03-09T02:03:45.589Z,100744.85
2019-03-09T02:06:17.979Z,100740.34
2019-03-09T02:08:50.357Z,100735.79
2019-03-09T02:11:22.379Z,100726.56
2019-03-09T02:13:54.332Z,100716.96
2019-03-09T02:16:26.662Z,100710.34
2019-03-09T02:18:58.716Z,100707.03
2019-03-09T02:21:30.666Z,100701.83
2019-03-09T02:24:02.636Z,100690.87
2019-03-09T02:26:34.594Z,100677.46
2019-03-09T02:29:06.578Z,100665.58
2019-03-09T02:31:38.516Z,100654.84
2019-03-09T02:34:10.487Z,100645.72
2019-03-09T02:36:42.658Z,100635.78
2019-03-09T02:39:22.244Z,100630.15
2019-03-09T02:41:54.202Z,100624.02
2019-03-09T02:44:26.158Z,100616.33
2019-03-09T02:46:58.139Z,100610.95
2019-03-09T02:49:30.389Z,100607.09
2019-03-09T02:52:02.349Z,100602.48
2019-03-09T02:54:34.315Z,100599.55
2019-03-09T02:57:06.789Z,100595.37
2019-03-09T02:59:38.775Z,100589.94
2019-03-09T03:02:12.399Z,100586.52
2019-03-09T03:04:44.342Z,100576.70
2019-03-09T03:07:16.313Z,100572.79
2019-03-09T03:09:48.259Z,100565.89
2019-03-09T03:12:20.234Z,100557.93
2019-03-09T03:14:52.358Z,100554.39
2019-03-09T03:17:24.497Z,100547.48
2019-03-09T03:19:56.457Z,100537.12
2019-03-09T03:22:28.425Z,100526.32
2019-03-09T03:25:00.460Z,100527.56
2019-03-09T03:27:32.450Z,100516.45
2019-03-09T03:30:06.341Z,100510.27
2019-03-09T03:32:38.427Z,100501.63
2019-03-09T03:35:10.448Z,100500.98
2019-03-09T03:37:42.411Z,100489.42
2019-03-09T03:40:31.797Z,100487.30
2019-03-09T03:43:03.743Z,100476.82
2019-03-09T03:45:35.704Z,100468.95
2019-03-09T03:48:07.663Z,100458.58
2019-03-09T03:50:39.615Z,100459.66
2019-03-09T03:53:11.894Z,100449.78
2019-03-09T03:55:43.857Z,100447.78
2019-03-09T03:58:15.866Z,100441.05
2019-03-09T04:00:47.887Z,100429.88
2019-03-09T04:03:19.922Z,100422.00
2019-03-09T04:05:52.260Z,100418.04
2019-03-09T04:08:24.709Z,100412.12
2019-03-09T04:10:56.682Z,100396.55
2019-03-09T04:13:28.652Z,100390.53
2019-03-09T04:16:00.604Z,100386.45
2019-03-09T04:18:32.588Z,100364.21
2019-03-09T04:21:04.841Z,100360.84
2019-03-09T04:23:36.812Z,100355.84
2019-03-09T04:26:08.776Z,100349.61
2019-03-09T04:28:40.729Z,100343.91
2019-03-09T04:31:12.712Z,100329.26
2019-03-09T04:33:44.644Z,100326.22
2019-03-09T04:36:16.606Z,100328.00
2019-03-09T04:38:48.554Z,100311.45
2019-03-09T04:41:20.509Z,100307.19
2019-03-09T04:43:52.510Z,100304.11
2019-03-09T04:46:24.467Z,100292.67
2019-03-09T04:48:56.430Z,100288.80
2019-03-09T04:51:28.416Z,100282.68
2019-03-09T04:54:00.373Z,100273.95
2019-03-09T04:56:32.343Z,100274.91
2019-03-09T04:59:20.069Z,100263.84
2019-03-09T05:01:52.053Z,100255.88
2019-03-09T05:04:34.431Z,100246.33
2019-03-09T05:07:06.382Z,100239.69
2019-03-09T05:09:51.799Z,100229.43
2019-03-09T05:12:23.771Z,100216.94
2019-03-09T05:14:55.723Z,100204.92
2019-03-09T05:17:27.680Z,100195.81
2019-03-09T05:19:59.769Z,100182.46
2019-03-09T05:22:31.706Z,100174.00
2019-03-09T05:25:03.727Z,100173.45
2019-03-09T05:27:37.285Z,100163.94
2019-03-09T05:30:14.142Z,100154.40
2019-03-09T05:32:46.103Z,100160.27
2019-03-09T05:35:18.374Z,100152.73
2019-03-09T05:37:50.388Z,100144.11
2019-03-09T05:40:22.435Z,100132.81
2019-03-09T05:42:54.410Z,100125.60
2019-03-09T05:45:26.355Z,100112.80
2019-03-09T05:47:58.321Z,100103.19
2019-03-09T05:50:30.363Z,100099.77
2019-03-09T05:53:18.283Z,100096.55
2019-03-09T05:55:50.228Z,100081.08
2019-03-09T05:58:22.208Z,100077.34
2019-03-09T06:00:54.158Z,100072.94
2019-03-09T06:03:26.119Z,100075.46
2019-03-09T06:05:58.151Z,100068.77
2019-03-09T06:08:33.179Z,100068.38
2019-03-09T06:11:03.747Z,100062.42
2019-03-09T06:13:35.787Z,100060.08
2019-03-09T06:16:07.731Z,100047.36
2019-03-09T06:18:39.693Z,100048.50
2019-03-09T06:21:11.942Z,100038.47
2019-03-09T06:23:44.215Z,100032.49
2019-03-09T06:26:16.483Z,100023.44
2019-03-09T06:28:48.447Z,100019.53
2019-03-09T06:31:20.400Z,100016.45
2019-03-09T06:33:53.349Z,100015.05
2019-03-09T06:36:32.644Z,100015.17
2019-03-09T06:39:08.074Z,100006.63
2019-03-09T06:42:09.280Z,100006.08
2019-03-09T06:44:41.232Z,100009.85
2019-03-09T06:47:13.183Z,100012.48
2019-03-09T06:49:45.123Z,100011.69
2019-03-09T06:52:17.104Z,100007.39
2019-03-09T06:54:49.035Z,100017.03
2019-03-09T06:57:21.017Z,100025.61
2019-03-09T06:59:52.964Z,100026.42
2019-03-09T07:02:24.939Z,100025.88
2019-03-09T07:04:56.884Z,100023.86
2019-03-09T07:07:29.146Z,100013.13
2019-03-09T07:10:01.436Z,100017.19
2019-03-09T07:12:33.420Z,100011.55
2019-03-09T07:15:30.446Z,100021.23
2019-03-09T07:18:09.678Z,100029.97
2019-03-09T07:20:41.998Z,100031.64
2019-03-09T07:23:13.943Z,100044.10
2019-03-09T07:25:46.172Z,100034.63
2019-03-09T07:28:18.207Z,100036.34
2019-03-09T07:30:50.153Z,100031.89
2019-03-09T07:33:22.100Z,100024.24
2019-03-09T07:35:54.099Z,100036.56
2019-03-09T07:38:26.042Z,100034.86
2019-03-09T07:40:57.990Z,100040.59
2019-03-09T07:43:30.251Z,100036.34
2019-03-09T07:46:02.197Z,100046.67
2019-03-09T07:48:34.161Z,100040.48
2019-03-09T07:51:06.468Z,100053.78
2019-03-09T07:53:38.440Z,100053.64
2019-03-09T07:56:10.703Z,100065.88
2019-03-09T07:58:42.668Z,100058.12
2019-03-09T08:01:14.621Z,100054.23
2019-03-09T08:03:46.577Z,100055.48
2019-03-09T08:06:18.524Z,100054.27
2019-03-09T08:08:50.484Z,100068.22
2019-03-09T08:11:22.454Z,100098.56
2019-03-09T08:13:54.441Z,100085.44
2019-03-09T08:16:35.173Z,100066.24
2019-03-09T08:19:00.061Z,100069.73
2019-03-09T08:21:32.062Z,100071.64
2019-03-09T08:24:04.012Z,100087.56
2019-03-09T08:26:35.983Z,100081.83
2019-03-09T08:29:07.963Z,100083.39
2019-03-09T08:31:39.925Z,100083.57
2019-03-09T08:34:11.878Z,100082.76
2019-03-09T08:36:43.947Z,100085.86
2019-03-09T08:39:16.218Z,100094.36
2019-03-09T08:41:48.230Z,100074.09
2019-03-09T08:44:20.174Z,100108.45
2019-03-09T08:46:52.125Z,100106.92
2019-03-09T08:49:24.100Z,100106.88
2019-03-09T08:51:56.101Z,100121.80
2019-03-09T08:54:28.068Z,100114.61
2019-03-09T08:57:00.037Z,100121.06
2019-03-09T08:59:31.980Z,100123.64
2019-03-09T09:02:04.302Z,100117.78
2019-03-09T09:04:36.577Z,100128.58
2019-03-09T09:07:08.613Z,100126.48
2019-03-09T09:09:40.564Z,100126.44
2019-03-09T09:12:12.878Z,100150.25
2019-03-09T09:14:44.911Z,100124.94
2019-03-09T09:17:16.939Z,100149.58
2019-03-09T09:19:48.899Z,100140.05
2019-03-09T09:22:20.858Z,100133.25
2019-03-09T09:24:52.856Z,100150.03
2019-03-09T09:27:25.174Z,100142.03
2019-03-09T09:29:57.217Z,100144.56
2019-03-09T09:32:29.188Z,100161.24
2019-03-09T09:35:01.479Z,100129.90
2019-03-09T09:37:33.519Z,100141.02
2019-03-09T09:40:18.438Z,100131.51
2019-03-09T09:42:50.682Z,100133.08
2019-03-09T09:45:23.168Z,100166.52
2019-03-09T09:47:55.149Z,100136.02
2019-03-09T09:50:27.381Z,100142.29
2019-03-09T09:52:59.367Z,100146.79
2019-03-09T09:55:31.329Z,100130.64
2019-03-09T09:58:03.301Z,100173.61
2019-03-09T10:00:35.275Z,100142.63
2019-03-09T10:03:07.289Z,100152.14
2019-03-09T10:05:39.572Z,100171.16
2019-03-09T10:08:11.916Z,100191.08
2019-03-09T10:10:43.881Z,100202.07
2019-03-09T10:13:15.917Z,100210.35
2019-03-09T10:15:47.877Z,100223.17
2019-03-09T10:18:19.850Z,100230.05
2019-03-09T10:20:51.815Z,100241.50
2019-03-09T10:23:23.763Z,100232.78
2019-03-09T10:25:55.722Z,100222.72
2019-03-09T10:28:27.687Z,100240.10
2019-03-09T10:30:59.642Z,100249.09
2019-03-09T10:33:31.626Z,100249.11
2019-03-09T10:36:03.617Z,100239.62
2019-03-09T10:38:35.579Z,100261.27
2019-03-09T10:41:08.009Z,100246.25
2019-03-09T10:43:39.960Z,100255.71
2019-03-09T10:46:11.935Z,100245.77
2019-03-09T10:48:43.891Z,100261.89
2019-03-09T10:51:15.859Z,100265.66
2019-03-09T10:53:47.813Z,100260.83
2019-03-09T10:56:20.079Z,100269.80
2019-03-09T10:58:52.029Z,100262.28
2019-03-09T11:01:24.005Z,100272.73
2019-03-09T11:03:55.978Z,100263.23
2019-03-09T11:06:28.251Z,100270.72
2019-03-09T11:09:00.195Z,100298.20
2019-03-09T11:11:32.154Z,100282.48
2019-03-09T11:14:04.130Z,100280.72
2019-03-09T11:16:36.070Z,100285.41
2019-03-09T11:19:08.098Z,100291.13
2019-03-09T11:21:40.052Z,100279.20
2019-03-09T11:24:12.020Z,100282.03
2019-03-09T11:26:44.269Z,100289.15
2019-03-09T11:29:16.529Z,100297.93
2019-03-09T11:31:48.499Z,100288.27
2019-03-09T11:34:20.473Z,100308.85
2019-03-09T11:36:52.431Z,100290.91
2019-03-09T11:39:24.402Z,100265.52
2019-03-09T11:41:56.431Z,100295.47
2019-03-09T11:44:28.727Z,100281.91
2019-03-09T11:47:01.100Z,100279.06
2019-03-09T11:49:33.132Z,100287.90
2019-03-09T11:52:05.082Z,100322.97
2019-03-09T11:54:37.411Z,100304.38
2019-03-09T11:57:09.386Z,100283.57
2019-03-09T11:59:41.344Z,100275.80
2019-03-09T12:02:13.328Z,100313.45
2019-03-09T12:04:47.035Z,100297.55
2019-03-09T12:07:19.410Z,100296.53
2019-03-09T12:09:51.363Z,100291.19
2019-03-09T12:12:23.328Z,100307.94
2019-03-09T12:14:55.291Z,100294.20
2019-03-09T12:17:27.263Z,100306.83
2019-03-09T12:19:59.612Z,100310.30
2019-03-09T12:22:31.565Z,100309.45
2019-03-09T12:25:04.119Z,100317.63
2019-03-09T12:27:36.082Z,100313.36
2019-03-09T12:30:17.082Z,100309.13
2019-03-09T12:32:49.186Z,100326.55
2019-03-09T12:35:21.168Z,100292.13
2019-03-09T12:37:53.149Z,100300.55
2019-03-09T12:40:25.117Z,100317.52
2019-03-09T12:42:57.410Z,100310.00
2019-03-09T12:45:29.602Z,100325.58
2019-03-09T12:48:01.568Z,100324.50
2019-03-09T12:50:33.524Z,100310.12
2019-03-09T12:53:05.489Z,100300.11
2019-03-09T12:55:37.457Z,100301.49
2019-03-09T12:58:09.426Z,100313.34
2019-03-09T13:00:41.671Z,100283.77
2019-03-09T13:03:13.876Z,100294.70
2019-03-09T13:05:46.857Z,100295.20
2019-03-09T13:08:18.984Z,100293.13
2019-03-09T13:10:50.950Z,100295.75
2019-03-09T13:13:22.910Z,100296.14
2019-03-09T13:15:55.190Z,100297.45
2019-03-09T13:18:27.141Z,100318.41
2019-03-09T13:21:00.093Z,100305.59
2019-03-09T13:23:32.058Z,100297.80
2019-03-09T13:26:04.374Z,100303.22
2019-03-09T13:28:36.327Z,100292.52
2019-03-09T13:31:08.557Z,100314.05
2019-03-09T13:33:40.539Z,100302.02
2019-03-09T13:36:12.854Z,100287.38
2019-03-09T13:38:45.274Z,100295.45
2019-03-09T13:41:17.284Z,100307.66
2019-03-09T13:43:49.286Z,100302.68
2019-03-09T13:46:21.244Z,100300.48
2019-03-09T13:48:53.200Z,100298.34
2019-03-09T13:51:25.171Z,100300.55
2019-03-09T13:53:57.128Z,100286.37
2019-03-09T13:56:29.130Z,100289.52
2019-03-09T13:59:01.082Z,100287.83
2019-03-09T14:01:33.048Z,100288.93
2019-03-09T14:04:05.388Z,100294.68
2019-03-09T14:06:37.394Z,100282.77
2019-03-09T14:09:09.930Z,100281.53
2019-03-09T14:11:42.179Z,100280.04
2019-03-09T14:14:14.448Z,100277.88
2019-03-09T14:16:46.458Z,100278.91
2019-03-09T14:19:18.387Z,100273.28
2019-03-09T14:21:50.365Z,100275.27
2019-03-09T14:24:22.619Z,100262.10
2019-03-09T14:26:54.897Z,100263.20
2019-03-09T14:29:27.162Z,100252.72
2019-03-09T14:31:59.127Z,100250.94
2019-03-09T14:34:31.110Z,100249.63
2019-03-09T14:37:03.088Z,100253.17
2019-03-09T14:39:35.048Z,100249.75
2019-03-09T14:42:07.035Z,100249.16
2019-03-09T14:44:39.378Z,100239.84
2019-03-09T14:47:11.316Z,100231.39
2019-03-09T14:49:46.857Z,100232.27
2019-03-09T14:52:18.830Z,100189.21
2019-03-09T14:54:50.815Z,100228.39
2019-03-09T14:57:23.386Z,100234.96
2019-03-09T14:59:55.741Z,100227.66
2019-03-09T15:02:27.785Z,100231.58
2019-03-09T15:04:59.747Z,100232.51
2019-03-09T15:07:31.734Z,100222.05
2019-03-09T15:10:03.863Z,100230.30
2019-03-09T15:12:35.909Z,100219.61
2019-03-09T15:15:16.930Z,100206.55
2019-03-09T15:17:49.145Z,100208.08
2019-03-09T15:20:21.193Z,100212.70
2019-03-09T15:22:53.616Z,100204.53
2019-03-09T15:25:25.678Z,100207.16
2019-03-09T15:27:58.012Z,100198.60
2019-03-09T15:30:30.053Z,100190.95
2019-03-09T15:33:02.091Z,100189.18
2019-03-09T15:35:35.398Z,100183.82
2019-03-09T15:38:07.695Z,100177.77
2019-03-09T15:40:39.658Z,100176.91
2019-03-09T15:43:11.921Z,100178.60
2019-03-09T15:45:43.913Z,100179.19
2019-03-09T15:48:15.875Z,100157.11
2019-03-09T15:50:47.830Z,100143.67
2019-03-09T15:53:19.804Z,100137.31
2019-03-09T15:55:52.066Z,100138.52
2019-03-09T15:58:24.079Z,100133.75
2019-03-09T16:00:56.050Z,100130.97
2019-03-09T16:03:28.471Z,100127.31
2019-03-09T16:06:00.445Z,100110.68
2019-03-09T16:08:32.391Z,100109.16
2019-03-09T16:11:04.388Z,100102.25
2019-03-09T16:13:36.611Z,100098.53
2019-03-09T16:16:08.624Z,100096.48
2019-03-09T16:18:40.950Z,100091.63
2019-03-09T16:21:12.918Z,100089.72
2019-03-09T16:23:45.194Z,100081.23
2019-03-09T16:26:17.149Z,100065.84
2019-03-09T16:28:49.124Z,100065.85
2019-03-09T16:31:21.110Z,100057.23
2019-03-09T16:33:53.091Z,100056.47
2019-03-09T16:36:25.024Z,100049.03
2019-03-09T16:38:56.977Z,100002.69
2019-03-09T16:41:28.930Z,100039.84
2019-03-09T16:44:00.961Z,100035.84
2019-03-09T16:46:32.914Z,100030.06
2019-03-09T16:49:04.908Z,100019.16
2019-03-09T16:51:36.858Z,100007.48
2019-03-09T16:54:09.161Z,100005.92
2019-03-09T16:56:41.433Z,100003.10
2019-03-09T16:59:13.364Z,99998.27
2019-03-09T17:01:45.422Z,99995.27
2019-03-09T17:04:17.721Z,99981.66
2019-03-09T17:06:49.689Z,99979.57
2019-03-09T17:09:21.964Z,99981.44
2019-03-09T17:11:53.910Z,99975.36
2019-03-09T17:14:25.859Z,99969.27
2019-03-09T17:16:57.813Z,99959.41
2019-03-09T17:19:30.109Z,99957.73
2019-03-09T17:22:02.087Z,99954.74
2019-03-09T17:24:34.031Z,99949.59
2019-03-09T17:27:05.996Z,99946.70
2019-03-09T17:29:37.953Z,99942.34
2019-03-09T17:32:09.922Z,99931.73
2019-03-09T17:34:41.876Z,99926.17
2019-03-09T17:37:14.276Z,99918.78
2019-03-09T17:39:46.220Z,99916.80
2019-03-09T17:42:18.182Z,99910.23
2019-03-09T17:44:50.122Z,99911.70
2019-03-09T17:47:22.091Z,99905.90
2019-03-09T17:49:54.032Z,99902.39
2019-03-09T17:52:26.041Z,99896.78
2019-03-09T17:54:57.979Z,99897.52
2019-03-09T17:57:30.295Z,99886.42
2019-03-09T18:00:02.299Z,99886.09
2019-03-09T18:02:34.239Z,99886.42
2019-03-09T18:05:08.005Z,99887.27
2019-03-09T18:07:39.944Z,99891.80
2019-03-09T18:10:34.592Z,99903.67
2019-03-09T18:13:06.553Z,99916.03
2019-03-09T18:15:38.489Z,99923.83
2019-03-09T18:18:10.460Z,99928.19
2019-03-09T18:20:42.694Z,99930.69
2019-03-09T18:23:14.664Z,99932.76
2019-03-09T18:25:46.978Z,99951.27
2019-03-09T18:28:18.932Z,99959.58
2019-03-09T18:30:51.212Z,99961.80
2019-03-09T18:33:23.165Z,99978.59
2019-03-09T18:35:55.176Z,99995.38
2019-03-09T18:38:27.529Z,100054.41
2019-03-09T18:40:59.522Z,100096.62
2019-03-09T18:43:31.475Z,100093.94
2019-03-09T18:46:03.436Z,100095.27
2019-03-09T18:48:35.392Z,100093.28
2019-03-09T18:51:07.347Z,100103.20
2019-03-09T18:53:39.294Z,100101.58
2019-03-09T18:56:11.242Z,100113.92
2019-03-09T18:58:43.178Z,100112.34
2019-03-09T19:01:15.128Z,100138.48
2019-03-09T19:03:47.085Z,100144.45
2019-03-09T19:06:19.089Z,100151.34
2019-03-09T19:08:51.037Z,100168.48
2019-03-09T19:11:23.367Z,100158.91
2019-03-09T19:13:55.358Z,100163.36
2019-03-09T19:16:27.697Z,100176.33
2019-03-09T19:19:00.053Z,100165.96
2019-03-09T19:21:32.030Z,100196.39
2019-03-09T19:24:04.040Z,100200.48
2019-03-09T19:26:36.035Z,100205.35
2019-03-09T19:29:07.959Z,100221.88
2019-03-09T19:31:40.175Z,100229.04
2019-03-09T19:34:12.128Z,100252.67
2019-03-09T19:36:44.429Z,100257.28
2019-03-09T19:39:16.369Z,100270.30
2019-03-09T19:41:48.651Z,100295.95
2019-03-09T19:44:20.656Z,100288.52
2019-03-09T19:46:52.588Z,100293.84
2019-03-09T19:49:24.533Z,100301.92
2019-03-09T19:51:56.483Z,100314.98
2019-03-09T19:54:28.419Z,100313.02
2019-03-09T19:57:00.670Z,100310.37
2019-03-09T19:59:32.607Z,100319.78
2019-03-09T20:02:04.637Z,100326.51
2019-03-09T20:04:36.581Z,100329.00
2019-03-09T20:07:08.677Z,100323.26
2019-03-09T20:09:40.632Z,100328.63
2019-03-09T20:12:12.933Z,100338.48
2019-03-09T20:14:44.927Z,100341.34
2019-03-09T20:17:17.163Z,100344.54
2019-03-09T20:19:49.117Z,100352.45
2019-03-09T20:22:21.063Z,100349.58
2019-03-09T20:24:53.366Z,100359.12
2019-03-09T20:27:25.997Z,100351.53
2019-03-09T20:29:58.263Z,100351.86
2019-03-09T20:32:31.676Z,100355.71
2019-03-09T20:35:03.617Z,100361.88
2019-03-09T20:37:35.666Z,100369.31
2019-03-09T20:40:16.381Z,100371.91
2019-03-09T20:42:48.399Z,100379.48
2019-03-09T20:45:24.190Z,100375.58
2019-03-09T20:47:56.165Z,100383.88
2019-03-09T20:50:28.101Z,100375.96
2019-03-09T20:53:00.449Z,100375.42
2019-03-09T20:55:32.422Z,100375.59
2019-03-09T20:58:04.362Z,100379.87
2019-03-09T21:00:36.324Z,100387.61
2019-03-09T21:03:08.442Z,100383.88
2019-03-09T21:05:40.690Z,100386.09
2019-03-09T21:08:12.642Z,100384.69
2019-03-09T21:10:44.664Z,100391.46
2019-03-09T21:13:16.592Z,100403.33
2019-03-09T21:15:48.841Z,100403.96
2019-03-09T21:18:21.115Z,100420.21
2019-03-09T21:20:53.087Z,100425.36
2019-03-09T21:23:25.103Z,100424.44
2019-03-09T21:25:57.617Z,100418.75
2019-03-09T21:28:29.544Z,100424.08
2019-03-09T21:31:01.598Z,100426.41
2019-03-09T21:33:33.543Z,100436.20
2019-03-09T21:36:05.495Z,100448.51
2019-03-09T21:38:37.441Z,100441.09
2019-03-09T21:41:09.416Z,100444.13
2019-03-09T21:43:41.541Z,100442.05
2019-03-09T21:46:13.844Z,100441.40
2019-03-09T21:48:45.810Z,100444.37
2019-03-09T21:51:18.056Z,100464.04
2019-03-09T21:53:50.032Z,100456.34
2019-03-09T21:56:21.985Z,100462.95
2019-03-09T21:58:53.987Z,100453.10
2019-03-09T22:01:25.981Z,100460.45
2019-03-09T22:03:58.206Z,100466.13
2019-03-09T22:06:30.156Z,100458.06
2019-03-09T22:09:02.122Z,100466.02
2019-03-09T22:11:34.165Z,100463.75
2019-03-09T22:14:06.379Z,100458.44
2019-03-09T22:16:38.339Z,100460.83
2019-03-09T22:19:10.597Z,100469.92
2019-03-09T22:21:42.846Z,100466.84
2019-03-09T22:24:15.139Z,100492.23
2019-03-09T22:26:47.727Z,100483.30
2019-03-09T22:29:19.685Z,100487.47
2019-03-09T22:31:51.636Z,100479.34
2019-03-09T22:34:24.123Z,100493.64
2019-03-09T22:36:56.067Z,100472.95
2019-03-09T22:39:28.033Z,100486.17
2019-03-09T22:42:00.068Z,100495.16
2019-03-09T22:44:32.055Z,100484.11
2019-03-09T22:47:11.533Z,100486.92
2019-03-09T22:49:38.495Z,100491.61
2019-03-09T22:52:10.577Z,100495.75
2019-03-09T22:54:42.536Z,100493.80
2019-03-09T22:57:14.503Z,100504.80
2019-03-09T22:59:46.646Z,100504.20
2019-03-09T23:02:18.896Z,100507.38
2019-03-09T23:04:52.663Z,100503.86
2019-03-09T23:07:24.816Z,100498.82
2019-03-09T23:09:57.162Z,100506.16
2019-03-09T23:12:29.098Z,100504.39
2019-03-09T23:15:01.157Z,100511.37
2019-03-09T23:17:33.110Z,100508.10
2019-03-09T23:20:09.506Z,100515.31
2019-03-09T23:22:41.473Z,100515.91
2019-03-09T23:25:15.019Z,100513.27
2019-03-09T23:27:47.341Z,100513.49
2019-03-09T23:30:21.106Z,100519.40
2019-03-09T23:32:53.418Z,100509.30
2019-03-09T23:35:25.437Z,100514.87
2019-03-09T23:37:57.683Z,100505.88
2019-03-09T23:40:29.633Z,100500.95
2019-03-09T23:43:01.627Z,100513.30
2019-03-09T23:45:33.575Z,100500.95
2019-03-09T23:48:05.538Z,100510.00
2019-03-09T23:50:37.477Z,100500.57
2019-03-09T23:53:09.473Z,100493.04
2019-03-09T23:55:41.417Z,100487.78
2019-03-09T23:58:13.374Z,100500.57
